sensor_id;sensor_type;location;lat;lon;timestamp;pressure;altitude;pressure_sealevel;temperature;humidity
54822;BME280;41299;43.546;16.426;2022-07-24T00:02:25;101487.06;;;24.52;80.62
54822;BME280;41299;43.546;16.426;2022-07-24T00:04:50;101489.69;;;24.52;80.69
54822;BME280;41299;43.546;16.426;2022-07-24T00:07:16;101486.50;;;24.44;87.12
54822;BME280;41299;43.546;16.426;2022-07-24T00:09:41;101492.84;;;24.40;83.85
54822;BME280;41299;43.546;16.426;2022-07-24T00:12:07;101486.69;;;24.39;82.35
54822;BME280;41299;43.546;16.426;2022-07-24T00:14:33;101491.19;;;24.37;86.18
54822;BME280;41299;43.546;16.426;2022-07-24T00:16:58;101483.53;;;24.31;84.69
54822;BME280;41299;43.546;16.426;2022-07-24T00:19:24;101485.34;;;24.29;82.26
54822;BME280;41299;43.546;16.426;2022-07-24T00:21:49;101485.00;;;24.38;74.91
54822;BME280;41299;43.546;16.426;2022-07-24T00:24:15;101479.81;;;24.35;74.18
54822;BME280;41299;43.546;16.426;2022-07-24T00:26:40;101480.94;;;24.29;82.92
54822;BME280;41299;43.546;16.426;2022-07-24T00:29:06;101477.50;;;24.27;85.83
54822;BME280;41299;43.546;16.426;2022-07-24T00:31:31;101480.38;;;24.21;77.11
54822;BME280;41299;43.546;16.426;2022-07-24T00:33:56;101479.59;;;24.19;81.56
54822;BME280;41299;43.546;16.426;2022-07-24T00:36:22;101481.22;;;24.23;85.47
54822;BME280;41299;43.546;16.426;2022-07-24T00:38:47;101484.97;;;24.16;85.87
54822;BME280;41299;43.546;16.426;2022-07-24T00:41:13;101479.19;;;24.08;83.12
54822;BME280;41299;43.546;16.426;2022-07-24T00:43:58;101476.41;;;24.11;75.12
54822;BME280;41299;43.546;16.426;2022-07-24T00:46:24;101481.81;;;24.08;84.19
54822;BME280;41299;43.546;16.426;2022-07-24T00:48:49;101482.03;;;24.01;81.12
54822;BME280;41299;43.546;16.426;2022-07-24T00:51:14;101476.75;;;24.01;74.94
54822;BME280;41299;43.546;16.426;2022-07-24T00:53:40;101475.63;;;24.07;74.92
54822;BME280;41299;43.546;16.426;2022-07-24T00:56:06;101475.25;;;24.18;75.27
54822;BME280;41299;43.546;16.426;2022-07-24T00:58:31;101477.75;;;24.21;76.27
54822;BME280;41299;43.546;16.426;2022-07-24T01:00:56;101477.84;;;24.19;84.66
54822;BME280;41299;43.546;16.426;2022-07-24T01:03:22;101472.88;;;24.12;85.90
54822;BME280;41299;43.546;16.426;2022-07-24T01:05:47;101472.22;;;24.05;88.95
54822;BME280;41299;43.546;16.426;2022-07-24T01:08:13;101466.31;;;23.98;84.49
54822;BME280;41299;43.546;16.426;2022-07-24T01:10:38;101462.72;;;24.01;92.02
54822;BME280;41299;43.546;16.426;2022-07-24T01:13:04;101468.28;;;23.93;91.31
54822;BME280;41299;43.546;16.426;2022-07-24T01:15:30;101462.41;;;23.86;94.21
54822;BME280;41299;43.546;16.426;2022-07-24T01:17:55;101459.06;;;23.83;91.65
54822;BME280;41299;43.546;16.426;2022-07-24T01:20:21;101468.91;;;23.77;91.77
54822;BME280;41299;43.546;16.426;2022-07-24T01:22:46;101463.75;;;23.74;91.91
54822;BME280;41299;43.546;16.426;2022-07-24T01:25:12;101476.16;;;23.71;98.66
54822;BME280;41299;43.546;16.426;2022-07-24T01:27:38;101474.66;;;23.65;95.73
54822;BME280;41299;43.546;16.426;2022-07-24T01:30:04;101469.59;;;23.59;98.63
54822;BME280;41299;43.546;16.426;2022-07-24T01:32:29;101477.63;;;23.56;97.94
54822;BME280;41299;43.546;16.426;2022-07-24T01:34:55;101471.47;;;23.55;91.50
54822;BME280;41299;43.546;16.426;2022-07-24T01:37:20;101469.59;;;23.59;87.05
54822;BME280;41299;43.546;16.426;2022-07-24T01:39:46;101464.22;;;23.62;87.60
54822;BME280;41299;43.546;16.426;2022-07-24T01:42:11;101459.69;;;23.65;84.58
54822;BME280;41299;43.546;16.426;2022-07-24T01:44:37;101464.72;;;23.72;86.79
54822;BME280;41299;43.546;16.426;2022-07-24T01:47:02;101456.81;;;23.72;93.38
54822;BME280;41299;43.546;16.426;2022-07-24T01:49:28;101456.03;;;23.70;96.02
54822;BME280;41299;43.546;16.426;2022-07-24T01:51:53;101444.88;;;23.63;94.13
54822;BME280;41299;43.546;16.426;2022-07-24T01:54:18;101437.88;;;23.62;95.48
54822;BME280;41299;43.546;16.426;2022-07-24T01:56:44;101434.47;;;23.60;96.68
54822;BME280;41299;43.546;16.426;2022-07-24T01:59:09;101436.41;;;23.55;95.17
54822;BME280;41299;43.546;16.426;2022-07-24T02:01:35;101435.53;;;23.54;98.07
54822;BME280;41299;43.546;16.426;2022-07-24T02:04:00;101437.50;;;23.49;93.23
54822;BME280;41299;43.546;16.426;2022-07-24T02:06:25;101437.50;;;23.49;87.29
54822;BME280;41299;43.546;16.426;2022-07-24T02:08:51;101438.31;;;23.51;90.04
54822;BME280;41299;43.546;16.426;2022-07-24T02:11:16;101437.53;;;23.47;89.00
54822;BME280;41299;43.546;16.426;2022-07-24T02:13:43;101438.47;;;23.46;87.82
54822;BME280;41299;43.546;16.426;2022-07-24T02:16:10;101434.81;;;23.50;86.67
54822;BME280;41299;43.546;16.426;2022-07-24T02:18:35;101436.53;;;23.51;94.59
54822;BME280;41299;43.546;16.426;2022-07-24T02:21:00;101432.72;;;23.59;88.36
54822;BME280;41299;43.546;16.426;2022-07-24T02:23:26;101433.50;;;23.62;87.21
54822;BME280;41299;43.546;16.426;2022-07-24T02:25:51;101432.72;;;23.59;87.52
54822;BME280;41299;43.546;16.426;2022-07-24T02:28:17;101428.22;;;23.62;87.49
54822;BME280;41299;43.546;16.426;2022-07-24T02:30:44;101428.28;;;23.61;96.31
54822;BME280;41299;43.546;16.426;2022-07-24T02:33:10;101425.88;;;23.55;98.83
54822;BME280;41299;43.546;16.426;2022-07-24T02:35:36;101425.25;;;23.48;97.95
54822;BME280;41299;43.546;16.426;2022-07-24T02:38:02;101430.69;;;23.43;100.00
54822;BME280;41299;43.546;16.426;2022-07-24T02:40:28;101420.31;;;23.38;94.10
54822;BME280;41299;43.546;16.426;2022-07-24T02:42:53;101435.16;;;23.41;94.29
54822;BME280;41299;43.546;16.426;2022-07-24T02:45:19;101436.19;;;23.37;94.42
54822;BME280;41299;43.546;16.426;2022-07-24T02:47:53;101433.56;;;23.37;93.33
54822;BME280;41299;43.546;16.426;2022-07-24T02:50:20;101423.13;;;23.34;91.45
54822;BME280;41299;43.546;16.426;2022-07-24T02:52:46;101432.03;;;23.30;93.13
54822;BME280;41299;43.546;16.426;2022-07-24T02:55:12;101425.91;;;23.29;96.32
54822;BME280;41299;43.546;16.426;2022-07-24T02:57:37;101427.63;;;23.32;100.00
54822;BME280;41299;43.546;16.426;2022-07-24T03:00:05;101430.44;;;23.25;100.00
54822;BME280;41299;43.546;16.426;2022-07-24T03:02:32;101428.94;;;23.18;100.00
54822;BME280;41299;43.546;16.426;2022-07-24T03:04:58;101428.25;;;23.13;100.00
54822;BME280;41299;43.546;16.426;2022-07-24T03:07:23;101426.53;;;23.12;100.00
54822;BME280;41299;43.546;16.426;2022-07-24T03:09:49;101422.19;;;23.11;95.74
54822;BME280;41299;43.546;16.426;2022-07-24T03:12:14;101425.59;;;23.13;98.59
54822;BME280;41299;43.546;16.426;2022-07-24T03:14:40;101422.09;;;23.14;95.06
54822;BME280;41299;43.546;16.426;2022-07-24T03:17:05;101426.44;;;23.15;100.00
54822;BME280;41299;43.546;16.426;2022-07-24T03:19:30;101423.06;;;23.11;98.68
54822;BME280;41299;43.546;16.426;2022-07-24T03:21:56;101424.53;;;23.19;100.00
54822;BME280;41299;43.546;16.426;2022-07-24T03:24:21;101426.47;;;23.13;100.00
54822;BME280;41299;43.546;16.426;2022-07-24T03:26:47;101429.13;;;23.13;100.00
54822;BME280;41299;43.546;16.426;2022-07-24T03:29:12;101433.63;;;23.10;100.00
54822;BME280;41299;43.546;16.426;2022-07-24T03:31:38;101434.41;;;23.12;100.00
54822;BME280;41299;43.546;16.426;2022-07-24T03:34:03;101435.56;;;23.05;100.00
54822;BME280;41299;43.546;16.426;2022-07-24T03:36:29;101428.63;;;23.02;100.00
54822;BME280;41299;43.546;16.426;2022-07-24T03:38:54;101430.31;;;23.05;100.00
54822;BME280;41299;43.546;16.426;2022-07-24T03:41:20;101431.31;;;23.00;100.00
54822;BME280;41299;43.546;16.426;2022-07-24T03:43:45;101430.47;;;23.00;100.00
54822;BME280;41299;43.546;16.426;2022-07-24T03:46:10;101435.63;;;23.03;100.00
54822;BME280;41299;43.546;16.426;2022-07-24T03:48:36;101440.03;;;23.03;100.00
54822;BME280;41299;43.546;16.426;2022-07-24T03:51:02;101440.19;;;22.98;100.00
54822;BME280;41299;43.546;16.426;2022-07-24T03:53:27;101442.72;;;23.01;100.00
54822;BME280;41299;43.546;16.426;2022-07-24T03:55:52;101439.91;;;23.06;100.00
54822;BME280;41299;43.546;16.426;2022-07-24T03:58:18;101439.69;;;23.12;100.00
54822;BME280;41299;43.546;16.426;2022-07-24T04:00:43;101441.25;;;23.18;100.00
54822;BME280;41299;43.546;16.426;2022-07-24T04:03:09;101437.75;;;23.17;100.00
54822;BME280;41299;43.546;16.426;2022-07-24T04:05:34;101446.03;;;23.32;100.00
54822;BME280;41299;43.546;16.426;2022-07-24T04:07:59;101441.66;;;23.31;100.00
54822;BME280;41299;43.546;16.426;2022-07-24T04:10:25;101449.56;;;23.31;100.00
54822;BME280;41299;43.546;16.426;2022-07-24T04:12:50;101440.78;;;23.32;100.00
54822;BME280;41299;43.546;16.426;2022-07-24T04:15:15;101439.84;;;23.33;100.00
54822;BME280;41299;43.546;16.426;2022-07-24T04:17:41;101448.44;;;23.38;100.00
54822;BME280;41299;43.546;16.426;2022-07-24T04:20:09;101441.47;;;23.37;100.00
54822;BME280;41299;43.546;16.426;2022-07-24T04:22:35;101440.41;;;23.41;100.00
54822;BME280;41299;43.546;16.426;2022-07-24T04:25:01;101438.22;;;23.52;100.00
54822;BME280;41299;43.546;16.426;2022-07-24T04:27:26;101446.94;;;23.55;100.00
54822;BME280;41299;43.546;16.426;2022-07-24T04:29:51;101446.94;;;23.55;100.00
54822;BME280;41299;43.546;16.426;2022-07-24T04:32:17;101449.41;;;23.59;100.00
54822;BME280;41299;43.546;16.426;2022-07-24T04:34:42;101458.22;;;23.58;100.00
54822;BME280;41299;43.546;16.426;2022-07-24T04:37:08;101454.59;;;23.61;100.00
54822;BME280;41299;43.546;16.426;2022-07-24T04:39:33;101458.91;;;23.63;100.00
54822;BME280;41299;43.546;16.426;2022-07-24T04:41:58;101456.88;;;23.70;100.00
54822;BME280;41299;43.546;16.426;2022-07-24T04:44:24;101462.72;;;23.78;100.00
54822;BME280;41299;43.546;16.426;2022-07-24T04:46:49;101456.53;;;23.79;100.00
54822;BME280;41299;43.546;16.426;2022-07-24T04:49:14;101460.72;;;23.85;100.00
54822;BME280;41299;43.546;16.426;2022-07-24T04:51:40;101457.88;;;23.90;100.00
54822;BME280;41299;43.546;16.426;2022-07-24T04:54:05;101458.50;;;23.97;100.00
54822;BME280;41299;43.546;16.426;2022-07-24T04:56:31;101453.97;;;24.00;100.00
54822;BME280;41299;43.546;16.426;2022-07-24T04:58:58;101442.28;;;24.08;100.00
54822;BME280;41299;43.546;16.426;2022-07-24T05:01:24;101445.59;;;24.13;100.00
54822;BME280;41299;43.546;16.426;2022-07-24T05:03:50;101447.19;;;24.17;100.00
54822;BME280;41299;43.546;16.426;2022-07-24T05:06:15;101447.97;;;24.19;100.00
54822;BME280;41299;43.546;16.426;2022-07-24T05:08:40;101444.97;;;24.28;100.00
54822;BME280;41299;43.546;16.426;2022-07-24T05:11:06;101442.66;;;24.41;100.00
54822;BME280;41299;43.546;16.426;2022-07-24T05:13:31;101442.41;;;24.47;100.00
54822;BME280;41299;43.546;16.426;2022-07-24T05:15:57;101451.06;;;24.51;100.00
54822;BME280;41299;43.546;16.426;2022-07-24T05:18:22;101457.91;;;24.55;100.00
54822;BME280;41299;43.546;16.426;2022-07-24T05:20:48;101453.50;;;24.56;100.00
54822;BME280;41299;43.546;16.426;2022-07-24T05:23:13;101461.16;;;24.62;100.00
54822;BME280;41299;43.546;16.426;2022-07-24T05:25:38;101463.78;;;24.62;100.00
54822;BME280;41299;43.546;16.426;2022-07-24T05:28:04;101465.19;;;24.71;100.00
54822;BME280;41299;43.546;16.426;2022-07-24T05:30:30;101467.53;;;24.77;100.00
54822;BME280;41299;43.546;16.426;2022-07-24T05:32:55;101458.47;;;24.84;100.00
54822;BME280;41299;43.546;16.426;2022-07-24T05:35:21;101460.66;;;24.95;100.00
54822;BME280;41299;43.546;16.426;2022-07-24T05:37:46;101460.03;;;25.09;100.00
54822;BME280;41299;43.546;16.426;2022-07-24T05:40:12;101462.78;;;25.27;100.00
54822;BME280;41299;43.546;16.426;2022-07-24T05:42:37;101469.09;;;25.44;100.00
54822;BME280;41299;43.546;16.426;2022-07-24T05:45:04;101472.38;;;25.49;97.86
54822;BME280;41299;43.546;16.426;2022-07-24T05:47:36;101469.97;;;25.63;92.23
54822;BME280;41299;43.546;16.426;2022-07-24T05:50:02;101470.81;;;25.83;88.35
54822;BME280;41299;43.546;16.426;2022-07-24T05:52:27;101473.63;;;27.23;76.65
54822;BME280;41299;43.546;16.426;2022-07-24T05:54:53;101459.78;;;28.30;65.81
54822;BME280;41299;43.546;16.426;2022-07-24T05:57:18;101462.06;;;28.67;60.12
54822;BME280;41299;43.546;16.426;2022-07-24T05:59:44;101469.38;;;28.33;65.00
54822;BME280;41299;43.546;16.426;2022-07-24T06:02:09;101474.38;;;28.23;82.18
54822;BME280;41299;43.546;16.426;2022-07-24T06:04:37;101464.72;;;28.37;81.69
54822;BME280;41299;43.546;16.426;2022-07-24T06:07:12;101468.63;;;28.91;74.91
54822;BME280;41299;43.546;16.426;2022-07-24T06:09:37;101469.50;;;29.49;63.16
54822;BME280;41299;43.546;16.426;2022-07-24T06:12:04;101472.78;;;29.95;62.41
54822;BME280;41299;43.546;16.426;2022-07-24T06:14:30;101477.00;;;30.40;58.37
54822;BME280;41299;43.546;16.426;2022-07-24T06:16:56;101474.41;;;30.25;60.90
54822;BME280;41299;43.546;16.426;2022-07-24T06:19:21;101479.34;;;29.62;69.30
54822;BME280;41299;43.546;16.426;2022-07-24T06:21:46;101477.84;;;28.99;76.60
54822;BME280;41299;43.546;16.426;2022-07-24T06:24:12;101486.69;;;28.69;79.20
54822;BME280;41299;43.546;16.426;2022-07-24T06:26:37;101482.03;;;28.58;81.22
54822;BME280;41299;43.546;16.426;2022-07-24T06:29:03;101477.19;;;28.51;84.22
54822;BME280;41299;43.546;16.426;2022-07-24T06:31:29;101485.81;;;28.54;82.94
54822;BME280;41299;43.546;16.426;2022-07-24T06:33:54;101486.41;;;28.59;85.41
54822;BME280;41299;43.546;16.426;2022-07-24T06:36:20;101489.81;;;28.62;84.44
54822;BME280;41299;43.546;16.426;2022-07-24T06:38:45;101489.09;;;28.74;77.31
54822;BME280;41299;43.546;16.426;2022-07-24T06:41:10;101481.81;;;28.92;73.17
54822;BME280;41299;43.546;16.426;2022-07-24T06:43:36;101488.94;;;29.06;72.13
54822;BME280;41299;43.546;16.426;2022-07-24T06:46:01;101484.75;;;29.02;67.60
54822;BME280;41299;43.546;16.426;2022-07-24T06:48:26;101481.44;;;28.98;69.32
54822;BME280;41299;43.546;16.426;2022-07-24T06:50:52;101486.88;;;28.97;67.19
54822;BME280;41299;43.546;16.426;2022-07-24T06:53:17;101482.31;;;28.99;67.06
54822;BME280;41299;43.546;16.426;2022-07-24T06:55:43;101482.97;;;29.03;66.70
54822;BME280;41299;43.546;16.426;2022-07-24T06:58:08;101483.16;;;28.99;62.13
54822;BME280;41299;43.546;16.426;2022-07-24T07:00:33;101474.72;;;29.07;60.88
54822;BME280;41299;43.546;16.426;2022-07-24T07:02:59;101475.69;;;29.21;58.81
54822;BME280;41299;43.546;16.426;2022-07-24T07:05:24;101467.25;;;29.29;60.73
54822;BME280;41299;43.546;16.426;2022-07-24T07:07:50;101471.56;;;29.44;64.05
54822;BME280;41299;43.546;16.426;2022-07-24T07:10:15;101469.66;;;29.61;65.92
54822;BME280;41299;43.546;16.426;2022-07-24T07:12:41;101472.59;;;29.71;67.35
54822;BME280;41299;43.546;16.426;2022-07-24T07:15:10;101467.53;;;29.81;62.57
54822;BME280;41299;43.546;16.426;2022-07-24T07:17:41;101468.34;;;29.96;65.48
54822;BME280;41299;43.546;16.426;2022-07-24T07:20:08;101466.03;;;30.04;66.57
54822;BME280;41299;43.546;16.426;2022-07-24T07:22:34;101470.19;;;30.08;58.46
54822;BME280;41299;43.546;16.426;2022-07-24T07:24:59;101470.69;;;30.15;54.31
54822;BME280;41299;43.546;16.426;2022-07-24T07:27:25;101475.78;;;30.18;53.53
54822;BME280;41299;43.546;16.426;2022-07-24T07:29:50;101473.47;;;30.26;55.45
54822;BME280;41299;43.546;16.426;2022-07-24T07:32:16;101467.09;;;30.29;55.61
54822;BME280;41299;43.546;16.426;2022-07-24T07:34:41;101470.16;;;30.36;51.50
54822;BME280;41299;43.546;16.426;2022-07-24T07:37:06;101467.97;;;30.42;49.61
54822;BME280;41299;43.546;16.426;2022-07-24T07:39:32;101465.63;;;30.51;45.18
54822;BME280;41299;43.546;16.426;2022-07-24T07:41:57;101465.97;;;30.59;42.60
54822;BME280;41299;43.546;16.426;2022-07-24T07:44:23;101475.47;;;30.76;45.40
54822;BME280;41299;43.546;16.426;2022-07-24T07:46:48;101473.88;;;30.86;45.99
54822;BME280;41299;43.546;16.426;2022-07-24T07:49:13;101470.16;;;30.89;54.62
54822;BME280;41299;43.546;16.426;2022-07-24T07:51:39;101473.13;;;30.97;52.20
54822;BME280;41299;43.546;16.426;2022-07-24T07:54:04;101480.06;;;31.00;55.55
54822;BME280;41299;43.546;16.426;2022-07-24T07:56:30;101472.28;;;31.10;52.95
54822;BME280;41299;43.546;16.426;2022-07-24T07:58:56;101476.94;;;31.19;48.84
54822;BME280;41299;43.546;16.426;2022-07-24T08:01:22;101474.78;;;31.24;52.26
54822;BME280;41299;43.546;16.426;2022-07-24T20:39:34;101316.53;;;29.18;100.00
54822;BME280;41299;43.546;16.426;2022-07-24T20:41:59;101323.38;;;29.07;100.00
54822;BME280;41299;43.546;16.426;2022-07-24T20:44:27;101324.13;;;29.09;100.00
54822;BME280;41299;43.546;16.426;2022-07-24T20:46:52;101328.97;;;29.03;100.00
54822;BME280;41299;43.546;16.426;2022-07-24T20:49:18;101330.25;;;28.97;100.00
54822;BME280;41299;43.546;16.426;2022-07-24T20:51:43;101333.94;;;28.94;100.00
54822;BME280;41299;43.546;16.426;2022-07-24T20:54:09;101330.50;;;28.92;100.00
54822;BME280;41299;43.546;16.426;2022-07-24T20:56:35;101337.13;;;28.85;100.00
54822;BME280;41299;43.546;16.426;2022-07-24T20:59:00;101330.97;;;28.84;100.00
54822;BME280;41299;43.546;16.426;2022-07-24T21:01:25;101331.16;;;28.81;100.00
54822;BME280;41299;43.546;16.426;2022-07-24T21:03:51;101333.03;;;28.79;100.00
54822;BME280;41299;43.546;16.426;2022-07-24T21:06:17;101333.25;;;28.76;100.00
54822;BME280;41299;43.546;16.426;2022-07-24T21:08:42;101334.31;;;28.73;100.00
54822;BME280;41299;43.546;16.426;2022-07-24T21:11:07;101342.72;;;28.66;100.00
54822;BME280;41299;43.546;16.426;2022-07-24T21:13:33;101337.50;;;28.64;100.00
54822;BME280;41299;43.546;16.426;2022-07-24T21:15:58;101336.56;;;28.65;100.00
54822;BME280;41299;43.546;16.426;2022-07-24T21:18:24;101338.56;;;28.62;100.00
54822;BME280;41299;43.546;16.426;2022-07-24T21:20:49;101346.50;;;28.62;100.00
54822;BME280;41299;43.546;16.426;2022-07-24T21:23:17;101342.38;;;28.57;100.00
54822;BME280;41299;43.546;16.426;2022-07-24T21:25:43;101345.94;;;28.56;100.00
54822;BME280;41299;43.546;16.426;2022-07-24T21:28:08;101349.75;;;28.52;100.00
54822;BME280;41299;43.546;16.426;2022-07-24T21:30:34;101344.72;;;28.48;100.00
54822;BME280;41299;43.546;16.426;2022-07-24T21:33:01;101349.72;;;28.38;100.00
54822;BME280;41299;43.546;16.426;2022-07-24T21:35:27;101346.41;;;28.34;100.00
54822;BME280;41299;43.546;16.426;2022-07-24T21:37:52;101337.34;;;28.22;100.00
54822;BME280;41299;43.546;16.426;2022-07-24T21:40:18;101349.13;;;28.18;100.00
54822;BME280;41299;43.546;16.426;2022-07-24T21:42:43;101340.22;;;28.19;100.00
54822;BME280;41299;43.546;16.426;2022-07-24T21:45:09;101344.75;;;28.17;100.00
54822;BME280;41299;43.546;16.426;2022-07-24T21:47:34;101342.28;;;28.14;100.00
54822;BME280;41299;43.546;16.426;2022-07-24T21:50:01;101344.94;;;28.14;100.00
54822;BME280;41299;43.546;16.426;2022-07-24T21:52:27;101346.25;;;28.21;100.00
54822;BME280;41299;43.546;16.426;2022-07-24T21:54:52;101346.25;;;28.21;96.87
54822;BME280;41299;43.546;16.426;2022-07-24T21:57:18;101350.31;;;28.28;90.19
54822;BME280;41299;43.546;16.426;2022-07-24T21:59:43;101346.13;;;28.39;84.54
54822;BME280;41299;43.546;16.426;2022-07-24T22:02:09;101341.78;;;28.38;85.69
54822;BME280;41299;43.546;16.426;2022-07-24T22:04:34;101347.28;;;28.35;83.93
54822;BME280;41299;43.546;16.426;2022-07-24T22:07:00;101351.63;;;28.36;81.72
54822;BME280;41299;43.546;16.426;2022-07-24T22:09:26;101355.03;;;28.38;79.75
54822;BME280;41299;43.546;16.426;2022-07-24T22:11:56;101346.31;;;28.36;80.08
54822;BME280;41299;43.546;16.426;2022-07-24T22:14:21;101342.81;;;28.35;78.70
54822;BME280;41299;43.546;16.426;2022-07-24T22:16:47;101348.19;;;28.33;81.75
54822;BME280;41299;43.546;16.426;2022-07-24T22:19:12;101346.69;;;28.29;82.54
54822;BME280;41299;43.546;16.426;2022-07-24T22:21:38;101357.47;;;28.26;82.83
54822;BME280;41299;43.546;16.426;2022-07-24T22:24:03;101345.16;;;28.25;82.29
54822;BME280;41299;43.546;16.426;2022-07-24T22:26:29;101356.81;;;28.23;82.60
54822;BME280;41299;43.546;16.426;2022-07-24T22:28:54;101346.69;;;28.29;79.61
54822;BME280;41299;43.546;16.426;2022-07-24T22:31:20;101350.03;;;28.33;79.72
54822;BME280;41299;43.546;16.426;2022-07-24T22:33:45;101350.03;;;28.33;79.34
54822;BME280;41299;43.546;16.426;2022-07-24T22:36:12;101354.28;;;28.36;77.92
54822;BME280;41299;43.546;16.426;2022-07-24T22:38:38;101349.81;;;28.36;78.46
54822;BME280;41299;43.546;16.426;2022-07-24T22:41:05;101346.50;;;28.32;81.06
54822;BME280;41299;43.546;16.426;2022-07-24T22:43:33;101347.75;;;28.27;84.54
54822;BME280;41299;43.546;16.426;2022-07-24T22:46:05;101347.41;;;28.17;89.06
54822;BME280;41299;43.546;16.426;2022-07-24T22:48:32;101345.22;;;28.09;91.73
54822;BME280;41299;43.546;16.426;2022-07-24T22:50:57;101340.28;;;28.03;91.43
54822;BME280;41299;43.546;16.426;2022-07-24T22:53:23;101344.31;;;27.94;90.75
54822;BME280;41299;43.546;16.426;2022-07-24T22:55:49;101343.38;;;27.95;84.53
54822;BME280;41299;43.546;16.426;2022-07-24T22:58:16;101342.44;;;27.96;82.28
54822;BME280;41299;43.546;16.426;2022-07-24T23:00:42;101340.63;;;27.97;81.86
54822;BME280;41299;43.546;16.426;2022-07-24T23:03:08;101337.50;;;27.90;83.35
54822;BME280;41299;43.546;16.426;2022-07-24T23:05:35;101338.81;;;27.83;85.32
54822;BME280;41299;43.546;16.426;2022-07-24T23:08:01;101337.06;;;27.82;83.90
54822;BME280;41299;43.546;16.426;2022-07-24T23:10:26;101341.63;;;27.79;84.83
54822;BME280;41299;43.546;16.426;2022-07-24T23:12:52;101343.31;;;27.80;81.90
54822;BME280;41299;43.546;16.426;2022-07-24T23:15:17;101343.31;;;27.80;80.75
54822;BME280;41299;43.546;16.426;2022-07-24T23:17:43;101334.63;;;27.78;81.75
54822;BME280;41299;43.546;16.426;2022-07-24T23:20:08;101339.13;;;27.76;89.98
54822;BME280;41299;43.546;16.426;2022-07-24T23:22:34;101334.97;;;27.72;95.34
54822;BME280;41299;43.546;16.426;2022-07-24T23:24:59;101331.66;;;27.69;97.89
54822;BME280;41299;43.546;16.426;2022-07-24T23:27:25;101331.81;;;27.65;100.00
54822;BME280;41299;43.546;16.426;2022-07-24T23:29:50;101333.88;;;27.60;100.00
54822;BME280;41299;43.546;16.426;2022-07-24T23:32:16;101335.06;;;27.55;100.00
54822;BME280;41299;43.546;16.426;2022-07-24T23:34:41;101331.81;;;27.49;100.00
54822;BME280;41299;43.546;16.426;2022-07-24T23:37:07;101340.00;;;27.45;100.00
54822;BME280;41299;43.546;16.426;2022-07-24T23:39:33;101338.66;;;27.37;100.00
54822;BME280;41299;43.546;16.426;2022-07-24T23:41:59;101334.56;;;27.32;100.00
54822;BME280;41299;43.546;16.426;2022-07-24T23:44:24;101335.69;;;27.27;100.00
54822;BME280;41299;43.546;16.426;2022-07-24T23:46:50;101337.31;;;27.30;100.00
54822;BME280;41299;43.546;16.426;2022-07-24T23:49:15;101323.97;;;27.32;100.00
54822;BME280;41299;43.546;16.426;2022-07-24T23:51:41;101329.09;;;27.35;100.00
54822;BME280;41299;43.546;16.426;2022-07-24T23:54:06;101329.34;;;27.30;100.00
54822;BME280;41299;43.546;16.426;2022-07-24T23:56:32;101327.06;;;27.24;100.00
54822;BME280;41299;43.546;16.426;2022-07-24T23:58:57;101327.91;;;27.24;100.00
